sensor_id;sensor_type;location;lat;lon;timestamp;pressure;altitude;pressure_sealevel;temperature;humidity
68948;BME280;55996;49.546;7.400;2022-08-19T00:00:08;98309.41;;;21.81;73.92
68948;BME280;55996;49.546;7.400;2022-08-19T00:02:35;98320.78;;;21.83;73.72
68948;BME280;55996;49.546;7.400;2022-08-19T00:05:01;98315.69;;;21.80;73.59
68948;BME280;55996;49.546;7.400;2022-08-19T00:07:27;98318.19;;;21.72;74.42
68948;BME280;55996;49.546;7.400;2022-08-19T00:09:53;98327.06;;;21.61;74.35
68948;BME280;55996;49.546;7.400;2022-08-19T00:12:19;98334.84;;;21.74;74.75
68948;BME280;55996;49.546;7.400;2022-08-19T00:14:44;98329.22;;;21.67;74.31
68948;BME280;55996;49.546;7.400;2022-08-19T00:17:10;98313.06;;;21.59;74.12
68948;BME280;55996;49.546;7.400;2022-08-19T00:19:35;98317.88;;;21.54;74.46
68948;BME280;55996;49.546;7.400;2022-08-19T00:22:01;98308.59;;;21.48;74.85
68948;BME280;55996;49.546;7.400;2022-08-19T00:24:28;98314.59;;;21.62;75.67
68948;BME280;55996;49.546;7.400;2022-08-19T00:26:54;98307.22;;;21.65;75.05
68948;BME280;55996;49.546;7.400;2022-08-19T00:29:22;98306.25;;;21.66;74.90
68948;BME280;55996;49.546;7.400;2022-08-19T00:31:48;98313.41;;;21.75;74.89
68948;BME280;55996;49.546;7.400;2022-08-19T00:34:15;98305.78;;;21.61;74.51
68948;BME280;55996;49.546;7.400;2022-08-19T00:36:42;98315.78;;;21.69;74.48
68948;BME280;55996;49.546;7.400;2022-08-19T00:39:08;98309.00;;;21.43;74.82
68948;BME280;55996;49.546;7.400;2022-08-19T00:41:34;98317.56;;;21.47;75.48
68948;BME280;55996;49.546;7.400;2022-08-19T00:44:07;98320.47;;;21.44;75.44
68948;BME280;55996;49.546;7.400;2022-08-19T00:46:35;98318.47;;;21.36;76.08
68948;BME280;55996;49.546;7.400;2022-08-19T00:49:10;98328.66;;;21.31;76.88
68948;BME280;55996;49.546;7.400;2022-08-19T00:51:41;98322.75;;;21.27;77.70
68948;BME280;55996;49.546;7.400;2022-08-19T00:54:08;98319.56;;;21.34;77.71
68948;BME280;55996;49.546;7.400;2022-08-19T00:56:34;98315.59;;;21.28;77.42
68948;BME280;55996;49.546;7.400;2022-08-19T00:59:01;98305.03;;;21.38;77.49
68948;BME280;55996;49.546;7.400;2022-08-19T01:01:39;98313.28;;;21.35;76.87
68948;BME280;55996;49.546;7.400;2022-08-19T01:04:06;98302.75;;;21.33;77.07
68948;BME280;55996;49.546;7.400;2022-08-19T01:06:32;98301.66;;;21.36;76.62
68948;BME280;55996;49.546;7.400;2022-08-19T01:08:59;98281.91;;;21.28;76.65
68948;BME280;55996;49.546;7.400;2022-08-19T01:11:27;98286.41;;;21.38;76.70
68948;BME280;55996;49.546;7.400;2022-08-19T01:13:54;98274.38;;;21.34;76.78
68948;BME280;55996;49.546;7.400;2022-08-19T01:16:22;98265.28;;;21.15;77.03
68948;BME280;55996;49.546;7.400;2022-08-19T01:18:48;98286.22;;;21.29;77.12
68948;BME280;55996;49.546;7.400;2022-08-19T01:21:41;98295.56;;;21.24;77.50
68948;BME280;55996;49.546;7.400;2022-08-19T01:24:08;98300.81;;;21.14;77.65
68948;BME280;55996;49.546;7.400;2022-08-19T01:26:41;98295.22;;;21.17;77.93
68948;BME280;55996;49.546;7.400;2022-08-19T01:29:08;98292.69;;;21.16;77.82
68948;BME280;55996;49.546;7.400;2022-08-19T01:31:34;98288.47;;;21.13;77.23
68948;BME280;55996;49.546;7.400;2022-08-19T01:34:02;98301.03;;;21.11;77.48
68948;BME280;55996;49.546;7.400;2022-08-19T01:36:41;98296.59;;;21.11;77.42
68948;BME280;55996;49.546;7.400;2022-08-19T01:39:18;98296.13;;;21.06;77.83
68948;BME280;55996;49.546;7.400;2022-08-19T01:41:45;98307.50;;;20.97;78.59
68948;BME280;55996;49.546;7.400;2022-08-19T01:44:11;98301.13;;;20.88;78.22
68948;BME280;55996;49.546;7.400;2022-08-19T01:46:37;98316.72;;;20.93;78.77
68948;BME280;55996;49.546;7.400;2022-08-19T01:49:04;98304.78;;;20.76;78.75
68948;BME280;55996;49.546;7.400;2022-08-19T01:51:30;98311.44;;;20.82;78.88
68948;BME280;55996;49.546;7.400;2022-08-19T01:53:56;98307.09;;;20.80;79.22
68948;BME280;55996;49.546;7.400;2022-08-19T01:56:23;98312.63;;;20.66;79.80
68948;BME280;55996;49.546;7.400;2022-08-19T01:58:58;98307.81;;;20.71;80.44
68948;BME280;55996;49.546;7.400;2022-08-19T02:01:25;98315.78;;;20.71;80.32
68948;BME280;55996;49.546;7.400;2022-08-19T02:03:51;98303.81;;;20.66;81.00
68948;BME280;55996;49.546;7.400;2022-08-19T02:06:19;98304.06;;;20.74;81.00
68948;BME280;55996;49.546;7.400;2022-08-19T02:08:45;98299.13;;;20.69;80.95
68948;BME280;55996;49.546;7.400;2022-08-19T02:11:21;98319.50;;;20.69;80.81
68948;BME280;55996;49.546;7.400;2022-08-19T02:13:48;98318.69;;;20.57;81.06
68948;BME280;55996;49.546;7.400;2022-08-19T02:16:16;98309.41;;;20.51;81.77
68948;BME280;55996;49.546;7.400;2022-08-19T02:18:42;98311.59;;;20.46;81.47
68948;BME280;55996;49.546;7.400;2022-08-19T02:21:07;98321.94;;;20.49;82.07
68948;BME280;55996;49.546;7.400;2022-08-19T02:23:33;98316.91;;;20.46;81.90
68948;BME280;55996;49.546;7.400;2022-08-19T02:25:58;98307.84;;;20.37;82.28
68948;BME280;55996;49.546;7.400;2022-08-19T02:28:23;98301.13;;;20.33;83.17
68948;BME280;55996;49.546;7.400;2022-08-19T02:30:50;98314.75;;;20.28;83.15
68948;BME280;55996;49.546;7.400;2022-08-19T02:33:16;98308.22;;;20.21;83.54
68948;BME280;55996;49.546;7.400;2022-08-19T02:35:43;98314.25;;;20.23;83.73
68948;BME280;55996;49.546;7.400;2022-08-19T02:38:09;98309.31;;;20.07;84.53
68948;BME280;55996;49.546;7.400;2022-08-19T02:40:58;98313.88;;;20.05;85.17
68948;BME280;55996;49.546;7.400;2022-08-19T02:43:25;98316.94;;;20.12;85.84
68948;BME280;55996;49.546;7.400;2022-08-19T02:45:52;98321.13;;;20.26;84.96
68948;BME280;55996;49.546;7.400;2022-08-19T02:48:22;98326.09;;;20.30;84.97
68948;BME280;55996;49.546;7.400;2022-08-19T02:50:50;98328.13;;;20.38;84.64
68948;BME280;55996;49.546;7.400;2022-08-19T02:53:21;98322.94;;;20.37;84.85
68948;BME280;55996;49.546;7.400;2022-08-19T02:55:48;98315.34;;;20.32;84.89
68948;BME280;55996;49.546;7.400;2022-08-19T02:58:15;98317.25;;;20.30;84.77
68948;BME280;55996;49.546;7.400;2022-08-19T03:00:55;98321.75;;;20.29;84.63
68948;BME280;55996;49.546;7.400;2022-08-19T03:03:21;98323.94;;;20.24;84.92
68948;BME280;55996;49.546;7.400;2022-08-19T03:05:47;98326.56;;;20.24;86.01
68948;BME280;55996;49.546;7.400;2022-08-19T03:08:13;98313.06;;;20.16;86.05
68948;BME280;55996;49.546;7.400;2022-08-19T03:10:46;98317.88;;;20.22;86.54
68948;BME280;55996;49.546;7.400;2022-08-19T03:13:17;98330.91;;;20.14;86.15
68948;BME280;55996;49.546;7.400;2022-08-19T03:15:44;98342.00;;;20.08;86.19
68948;BME280;55996;49.546;7.400;2022-08-19T03:18:12;98340.81;;;20.12;85.76
68948;BME280;55996;49.546;7.400;2022-08-19T03:20:55;98330.16;;;20.00;85.47
68948;BME280;55996;49.546;7.400;2022-08-19T03:23:22;98335.84;;;20.07;85.62
68948;BME280;55996;49.546;7.400;2022-08-19T03:25:49;98323.91;;;20.02;85.70
68948;BME280;55996;49.546;7.400;2022-08-19T03:28:16;98343.47;;;20.12;85.57
68948;BME280;55996;49.546;7.400;2022-08-19T03:30:43;98345.88;;;20.04;86.19
68948;BME280;55996;49.546;7.400;2022-08-19T03:33:21;98336.69;;;20.08;86.06
68948;BME280;55996;49.546;7.400;2022-08-19T03:35:47;98335.72;;;20.09;86.17
68948;BME280;55996;49.546;7.400;2022-08-19T03:38:13;98333.34;;;20.06;85.67
68948;BME280;55996;49.546;7.400;2022-08-19T03:40:38;98338.25;;;20.10;85.44
68948;BME280;55996;49.546;7.400;2022-08-19T03:43:04;98338.13;;;20.00;85.69
68948;BME280;55996;49.546;7.400;2022-08-19T03:45:30;98347.06;;;19.99;85.99
68948;BME280;55996;49.546;7.400;2022-08-19T03:47:56;98345.25;;;19.89;86.80
68948;BME280;55996;49.546;7.400;2022-08-19T03:50:21;98338.19;;;19.76;86.82
68948;BME280;55996;49.546;7.400;2022-08-19T03:52:51;98329.84;;;19.70;87.39
68948;BME280;55996;49.546;7.400;2022-08-19T03:55:18;98355.88;;;19.64;88.20
68948;BME280;55996;49.546;7.400;2022-08-19T03:57:43;98349.47;;;19.56;88.71
68948;BME280;55996;49.546;7.400;2022-08-19T04:00:10;98364.78;;;19.63;88.58
68948;BME280;55996;49.546;7.400;2022-08-19T04:02:36;98355.78;;;19.66;88.63
68948;BME280;55996;49.546;7.400;2022-08-19T04:05:02;98363.84;;;19.64;89.46
68948;BME280;55996;49.546;7.400;2022-08-19T04:07:27;98362.13;;;19.63;89.07
68948;BME280;55996;49.546;7.400;2022-08-19T04:09:53;98354.91;;;19.54;88.54
68948;BME280;55996;49.546;7.400;2022-08-19T04:12:18;98358.97;;;19.47;90.15
68948;BME280;55996;49.546;7.400;2022-08-19T04:14:45;98351.25;;;19.44;90.02
68948;BME280;55996;49.546;7.400;2022-08-19T04:17:11;98352.09;;;19.44;89.81
68948;BME280;55996;49.546;7.400;2022-08-19T04:19:38;98351.34;;;19.42;90.33
68948;BME280;55996;49.546;7.400;2022-08-19T04:22:04;98349.31;;;19.46;90.36
68948;BME280;55996;49.546;7.400;2022-08-19T04:24:30;98341.78;;;19.28;91.73
68948;BME280;55996;49.546;7.400;2022-08-19T04:26:56;98344.16;;;19.20;91.59
68948;BME280;55996;49.546;7.400;2022-08-19T04:29:23;98355.22;;;19.14;93.56
68948;BME280;55996;49.546;7.400;2022-08-19T04:31:51;98349.56;;;19.18;93.84
68948;BME280;55996;49.546;7.400;2022-08-19T04:34:19;98349.69;;;19.17;93.82
68948;BME280;55996;49.546;7.400;2022-08-19T04:36:47;98351.72;;;19.13;93.81
68948;BME280;55996;49.546;7.400;2022-08-19T04:39:18;98357.59;;;19.06;93.54
68948;BME280;55996;49.546;7.400;2022-08-19T04:41:44;98351.03;;;18.98;93.98
68948;BME280;55996;49.546;7.400;2022-08-19T04:44:33;98357.47;;;19.07;93.87
68948;BME280;55996;49.546;7.400;2022-08-19T04:46:59;98347.13;;;19.04;94.41
68948;BME280;55996;49.546;7.400;2022-08-19T04:49:25;98346.50;;;19.00;94.39
68948;BME280;55996;49.546;7.400;2022-08-19T04:51:52;98359.75;;;19.00;95.36
68948;BME280;55996;49.546;7.400;2022-08-19T04:54:20;98353.50;;;19.01;95.94
68948;BME280;55996;49.546;7.400;2022-08-19T04:56:51;98345.75;;;18.98;96.02
68948;BME280;55996;49.546;7.400;2022-08-19T04:59:18;98349.13;;;19.00;96.31
68948;BME280;55996;49.546;7.400;2022-08-19T05:01:46;98363.19;;;19.14;95.81
68948;BME280;55996;49.546;7.400;2022-08-19T05:04:17;98368.13;;;19.18;95.87
68948;BME280;55996;49.546;7.400;2022-08-19T05:06:45;98364.84;;;19.15;96.75
68948;BME280;55996;49.546;7.400;2022-08-19T05:09:12;98360.59;;;19.25;98.80
68948;BME280;55996;49.546;7.400;2022-08-19T05:11:37;98365.19;;;19.34;98.61
68948;BME280;55996;49.546;7.400;2022-08-19T05:14:05;98372.91;;;19.38;97.54
68948;BME280;55996;49.546;7.400;2022-08-19T05:16:31;98367.88;;;19.46;96.96
68948;BME280;55996;49.546;7.400;2022-08-19T05:18:57;98374.38;;;19.42;96.32
68948;BME280;55996;49.546;7.400;2022-08-19T05:21:41;98381.38;;;19.43;97.44
68948;BME280;55996;49.546;7.400;2022-08-19T05:24:27;98380.75;;;19.39;97.07
68948;BME280;55996;49.546;7.400;2022-08-19T05:26:54;98380.75;;;19.39;97.85
68948;BME280;55996;49.546;7.400;2022-08-19T05:29:22;98374.22;;;19.32;97.52
68948;BME280;55996;49.546;7.400;2022-08-19T05:31:48;98376.38;;;19.27;97.38
68948;BME280;55996;49.546;7.400;2022-08-19T05:34:15;98343.88;;;19.12;98.56
68948;BME280;55996;49.546;7.400;2022-08-19T05:36:42;98380.34;;;19.32;98.37
68948;BME280;55996;49.546;7.400;2022-08-19T05:39:11;98374.59;;;19.39;97.99
68948;BME280;55996;49.546;7.400;2022-08-19T05:41:42;98385.31;;;19.37;98.10
68948;BME280;55996;49.546;7.400;2022-08-19T05:44:07;98382.59;;;19.50;98.61
68948;BME280;55996;49.546;7.400;2022-08-19T05:46:35;98378.06;;;19.63;98.78
68948;BME280;55996;49.546;7.400;2022-08-19T05:49:03;98371.09;;;19.74;97.68
68948;BME280;55996;49.546;7.400;2022-08-19T05:51:30;98372.59;;;19.89;97.51
68948;BME280;55996;49.546;7.400;2022-08-19T05:53:55;98378.91;;;19.99;96.55
68948;BME280;55996;49.546;7.400;2022-08-19T05:56:21;98371.44;;;20.05;95.99
68948;BME280;55996;49.546;7.400;2022-08-19T05:58:46;98392.91;;;20.13;96.27
68948;BME280;55996;49.546;7.400;2022-08-19T06:01:15;98374.72;;;20.20;94.74
68948;BME280;55996;49.546;7.400;2022-08-19T06:03:42;98377.84;;;22.00;88.30
68948;BME280;55996;49.546;7.400;2022-08-19T06:06:10;98369.13;;;26.10;64.45
68948;BME280;55996;49.546;7.400;2022-08-19T06:08:37;98369.75;;;27.16;59.01
68948;BME280;55996;49.546;7.400;2022-08-19T06:11:34;98384.56;;;25.90;62.20
68948;BME280;55996;49.546;7.400;2022-08-19T06:14:04;98380.06;;;25.19;64.87
68948;BME280;55996;49.546;7.400;2022-08-19T06:16:35;98387.38;;;24.61;67.66
68948;BME280;55996;49.546;7.400;2022-08-19T06:19:05;98392.91;;;24.12;68.71
68948;BME280;55996;49.546;7.400;2022-08-19T06:21:32;98399.56;;;23.68;70.57
68948;BME280;55996;49.546;7.400;2022-08-19T06:23:58;98400.97;;;23.43;71.94
68948;BME280;55996;49.546;7.400;2022-08-19T06:26:25;98409.38;;;23.29;72.99
68948;BME280;55996;49.546;7.400;2022-08-19T06:28:51;98417.38;;;23.19;74.00
68948;BME280;55996;49.546;7.400;2022-08-19T06:31:23;98421.38;;;23.13;74.17
68948;BME280;55996;49.546;7.400;2022-08-19T06:33:49;98417.59;;;23.06;75.10
68948;BME280;55996;49.546;7.400;2022-08-19T06:38:55;98425.06;;;23.12;76.09
68948;BME280;55996;49.546;7.400;2022-08-19T06:41:22;98422.56;;;23.20;75.50
68948;BME280;55996;49.546;7.400;2022-08-19T06:43:48;98419.63;;;23.33;75.58
68948;BME280;55996;49.546;7.400;2022-08-19T06:46:15;98406.56;;;23.40;74.91
68948;BME280;55996;49.546;7.400;2022-08-19T06:48:41;98421.19;;;23.46;74.92
68948;BME280;55996;49.546;7.400;2022-08-19T06:51:07;98423.56;;;23.59;74.31
68948;BME280;55996;49.546;7.400;2022-08-19T06:53:33;98422.44;;;23.71;73.57
68948;BME280;55996;49.546;7.400;2022-08-19T06:55:59;98421.88;;;23.77;72.87
68948;BME280;55996;49.546;7.400;2022-08-19T06:58:31;98423.50;;;26.29;62.46
68948;BME280;55996;49.546;7.400;2022-08-19T07:01:02;98397.41;;;31.76;42.39
68948;BME280;55996;49.546;7.400;2022-08-19T07:03:33;98397.13;;;35.45;33.20
68948;BME280;55996;49.546;7.400;2022-08-19T07:06:19;98402.19;;;37.28;29.72
68948;BME280;55996;49.546;7.400;2022-08-19T07:08:46;98400.50;;;37.88;32.38
68948;BME280;55996;49.546;7.400;2022-08-19T07:11:15;98390.69;;;37.57;33.30
68948;BME280;55996;49.546;7.400;2022-08-19T07:13:43;98396.44;;;36.50;34.11
68948;BME280;55996;49.546;7.400;2022-08-19T07:16:17;98411.97;;;35.03;36.07
68948;BME280;55996;49.546;7.400;2022-08-19T07:18:45;98403.13;;;33.35;37.78
68948;BME280;55996;49.546;7.400;2022-08-19T07:21:20;98421.34;;;31.79;40.86
68948;BME280;55996;49.546;7.400;2022-08-19T07:23:46;98411.78;;;30.29;43.49
68948;BME280;55996;49.546;7.400;2022-08-19T07:26:15;98418.63;;;29.32;46.18
68948;BME280;55996;49.546;7.400;2022-08-19T07:28:42;98414.66;;;28.23;50.00
68948;BME280;55996;49.546;7.400;2022-08-19T07:31:12;98411.47;;;27.70;51.23
68948;BME280;55996;49.546;7.400;2022-08-19T07:33:39;98427.00;;;27.33;52.44
68948;BME280;55996;49.546;7.400;2022-08-19T07:36:07;98416.50;;;26.97;53.89
68948;BME280;55996;49.546;7.400;2022-08-19T07:38:37;98430.50;;;26.74;53.36
68948;BME280;55996;49.546;7.400;2022-08-19T07:41:04;98426.19;;;26.29;57.48
68948;BME280;55996;49.546;7.400;2022-08-19T07:43:29;98430.13;;;26.17;57.79
68948;BME280;55996;49.546;7.400;2022-08-19T07:45:55;98425.88;;;26.06;56.11
68948;BME280;55996;49.546;7.400;2022-08-19T07:48:25;98424.72;;;25.72;56.36
68948;BME280;55996;49.546;7.400;2022-08-19T07:50:56;98431.47;;;25.76;55.19
68948;BME280;55996;49.546;7.400;2022-08-19T07:53:24;98441.34;;;25.76;55.54
68948;BME280;55996;49.546;7.400;2022-08-19T07:55:50;98438.00;;;25.74;54.92
68948;BME280;55996;49.546;7.400;2022-08-19T07:58:19;98445.09;;;25.65;55.97
68948;BME280;55996;49.546;7.400;2022-08-19T08:00:47;98442.03;;;25.60;56.04
68948;BME280;55996;49.546;7.400;2022-08-19T08:03:14;98446.84;;;25.56;56.45
68948;BME280;55996;49.546;7.400;2022-08-19T08:05:40;98439.22;;;25.34;57.30
68948;BME280;55996;49.546;7.400;2022-08-19T08:08:24;98438.69;;;25.12;58.57
68948;BME280;55996;49.546;7.400;2022-08-19T08:11:08;98457.28;;;25.04;58.41
68948;BME280;55996;49.546;7.400;2022-08-19T08:13:34;98460.28;;;25.01;59.20
68948;BME280;55996;49.546;7.400;2022-08-19T08:16:01;98458.06;;;24.96;59.14
68948;BME280;55996;49.546;7.400;2022-08-19T08:18:27;98449.41;;;24.74;59.46
68948;BME280;55996;49.546;7.400;2022-08-19T08:20:53;98454.06;;;24.72;58.11
68948;BME280;55996;49.546;7.400;2022-08-19T08:23:18;98452.22;;;24.73;57.90
68948;BME280;55996;49.546;7.400;2022-08-19T08:25:57;98455.47;;;24.76;57.39
68948;BME280;55996;49.546;7.400;2022-08-19T08:28:23;98445.75;;;24.75;56.42
68948;BME280;55996;49.546;7.400;2022-08-19T08:30:50;98448.41;;;24.75;56.29
68948;BME280;55996;49.546;7.400;2022-08-19T08:33:21;98445.00;;;24.83;55.69
68948;BME280;55996;49.546;7.400;2022-08-19T08:35:47;98441.19;;;24.86;55.20
68948;BME280;55996;49.546;7.400;2022-08-19T08:38:13;98439.91;;;24.90;54.58
68948;BME280;55996;49.546;7.400;2022-08-19T08:40:47;98436.34;;;24.99;53.40
68948;BME280;55996;49.546;7.400;2022-08-19T08:43:30;98433.88;;;25.16;52.49
68948;BME280;55996;49.546;7.400;2022-08-19T08:46:03;98433.66;;;25.27;53.04
68948;BME280;55996;49.546;7.400;2022-08-19T08:48:39;98435.56;;;25.35;52.26
68948;BME280;55996;49.546;7.400;2022-08-19T08:51:10;98428.59;;;25.52;51.95
68948;BME280;55996;49.546;7.400;2022-08-19T08:53:37;98423.06;;;25.71;50.53
68948;BME280;55996;49.546;7.400;2022-08-19T08:56:06;98422.28;;;25.79;50.82
68948;BME280;55996;49.546;7.400;2022-08-19T08:58:42;98423.38;;;25.86;49.34
68948;BME280;55996;49.546;7.400;2022-08-19T09:01:11;98431.78;;;25.91;48.36
68948;BME280;55996;49.546;7.400;2022-08-19T09:03:38;98432.91;;;25.89;48.76
68948;BME280;55996;49.546;7.400;2022-08-19T09:06:14;98435.66;;;25.97;48.70
68948;BME280;55996;49.546;7.400;2022-08-19T09:16:17;98428.53;;;26.85;44.70
68948;BME280;55996;49.546;7.400;2022-08-19T09:18:49;98425.63;;;27.37;43.95
68948;BME280;55996;49.546;7.400;2022-08-19T09:21:18;98417.66;;;27.95;42.97
68948;BME280;55996;49.546;7.400;2022-08-19T09:23:44;98416.22;;;28.57;41.04
68948;BME280;55996;49.546;7.400;2022-08-19T09:26:14;98416.94;;;29.30;39.75
68948;BME280;55996;49.546;7.400;2022-08-19T09:28:40;98411.56;;;29.77;38.89
68948;BME280;55996;49.546;7.400;2022-08-19T09:31:25;98425.47;;;30.27;36.97
68948;BME280;55996;49.546;7.400;2022-08-19T09:33:52;98421.53;;;31.19;36.92
68948;BME280;55996;49.546;7.400;2022-08-19T09:36:23;98410.25;;;31.52;35.77
68948;BME280;55996;49.546;7.400;2022-08-19T09:38:50;98391.97;;;31.98;34.54
68948;BME280;55996;49.546;7.400;2022-08-19T09:41:19;98397.81;;;32.65;33.61
68948;BME280;55996;49.546;7.400;2022-08-19T09:43:47;98404.78;;;32.17;31.88
68948;BME280;55996;49.546;7.400;2022-08-19T09:46:14;98404.59;;;31.69;33.02
68948;BME280;55996;49.546;7.400;2022-08-19T09:48:42;98402.41;;;31.58;33.37
68948;BME280;55996;49.546;7.400;2022-08-19T09:51:13;98400.88;;;31.70;32.58
68948;BME280;55996;49.546;7.400;2022-08-19T09:53:42;98390.81;;;32.14;31.81
68948;BME280;55996;49.546;7.400;2022-08-19T09:56:09;98390.19;;;32.75;31.45
68948;BME280;55996;49.546;7.400;2022-08-19T09:58:36;98399.25;;;33.03;32.45
68948;BME280;55996;49.546;7.400;2022-08-19T10:01:02;98391.47;;;33.75;31.22
68948;BME280;55996;49.546;7.400;2022-08-19T10:03:30;98401.13;;;33.84;30.16
68948;BME280;55996;49.546;7.400;2022-08-19T10:05:58;98387.72;;;34.23;31.44
68948;BME280;55996;49.546;7.400;2022-08-19T10:08:33;98380.22;;;34.18;31.33
68948;BME280;55996;49.546;7.400;2022-08-19T10:11:00;98386.00;;;34.55;32.75
68948;BME280;55996;49.546;7.400;2022-08-19T10:13:28;98380.66;;;34.02;30.28
68948;BME280;55996;49.546;7.400;2022-08-19T10:15:57;98377.50;;;34.25;31.45
68948;BME280;55996;49.546;7.400;2022-08-19T10:18:26;98368.13;;;33.67;31.38
68948;BME280;55996;49.546;7.400;2022-08-19T10:21:01;98374.00;;;32.95;32.50
68948;BME280;55996;49.546;7.400;2022-08-19T10:23:27;98384.72;;;32.05;32.56
68948;BME280;55996;49.546;7.400;2022-08-19T10:25:59;98373.78;;;31.63;34.11
68948;BME280;55996;49.546;7.400;2022-08-19T10:28:24;98373.97;;;31.03;36.18
68948;BME280;55996;49.546;7.400;2022-08-19T10:30:50;98368.28;;;30.62;36.87
68948;BME280;55996;49.546;7.400;2022-08-19T10:33:15;98372.34;;;30.42;37.79
68948;BME280;55996;49.546;7.400;2022-08-19T10:35:41;98391.41;;;30.26;37.09
68948;BME280;55996;49.546;7.400;2022-08-19T10:38:06;98370.84;;;29.95;37.84
68948;BME280;55996;49.546;7.400;2022-08-19T10:40:32;98390.25;;;29.90;39.36
68948;BME280;55996;49.546;7.400;2022-08-19T10:42:57;98384.06;;;29.82;38.92
68948;BME280;55996;49.546;7.400;2022-08-19T10:45:23;98378.19;;;29.78;41.09
68948;BME280;55996;49.546;7.400;2022-08-19T10:47:52;98380.28;;;29.53;39.53
68948;BME280;55996;49.546;7.400;2022-08-19T10:50:18;98382.19;;;29.44;38.38
68948;BME280;55996;49.546;7.400;2022-08-19T10:53:07;98379.59;;;29.27;38.35
68948;BME280;55996;49.546;7.400;2022-08-19T10:55:36;98377.94;;;29.18;38.66
68948;BME280;55996;49.546;7.400;2022-08-19T10:58:21;98367.47;;;29.00;40.03
68948;BME280;55996;49.546;7.400;2022-08-19T11:00:56;98370.63;;;29.04;40.59
68948;BME280;55996;49.546;7.400;2022-08-19T11:03:23;98362.44;;;28.97;40.05
68948;BME280;55996;49.546;7.400;2022-08-19T11:06:03;98353.56;;;28.88;40.10
68948;BME280;55996;49.546;7.400;2022-08-19T11:08:29;98354.94;;;28.84;39.79
68948;BME280;55996;49.546;7.400;2022-08-19T11:10:59;98368.50;;;28.51;39.95
68948;BME280;55996;49.546;7.400;2022-08-19T11:13:27;98357.94;;;28.41;40.15
68948;BME280;55996;49.546;7.400;2022-08-19T11:15:58;98359.31;;;28.37;41.14
68948;BME280;55996;49.546;7.400;2022-08-19T11:18:24;98356.13;;;28.33;41.21
68948;BME280;55996;49.546;7.400;2022-08-19T11:20:49;98355.84;;;28.20;41.83
68948;BME280;55996;49.546;7.400;2022-08-19T11:23:15;98356.69;;;28.12;42.56
68948;BME280;55996;49.546;7.400;2022-08-19T11:25:40;98367.97;;;28.08;43.00
68948;BME280;55996;49.546;7.400;2022-08-19T11:28:06;98366.75;;;28.02;43.07
68948;BME280;55996;49.546;7.400;2022-08-19T11:30:32;98364.78;;;27.88;43.59
68948;BME280;55996;49.546;7.400;2022-08-19T11:32:58;98356.91;;;27.86;43.17
68948;BME280;55996;49.546;7.400;2022-08-19T11:35:25;98359.22;;;27.81;42.21
68948;BME280;55996;49.546;7.400;2022-08-19T11:37:51;98359.56;;;27.69;41.40
68948;BME280;55996;49.546;7.400;2022-08-19T11:40:16;98346.81;;;27.72;42.48
68948;BME280;55996;49.546;7.400;2022-08-19T11:42:42;98355.22;;;27.85;44.64
68948;BME280;55996;49.546;7.400;2022-08-19T11:45:23;98344.97;;;27.89;43.39
68948;BME280;55996;49.546;7.400;2022-08-19T11:47:49;98350.16;;;27.98;42.73
68948;BME280;55996;49.546;7.400;2022-08-19T11:50:15;98341.22;;;28.14;43.37
68948;BME280;55996;49.546;7.400;2022-08-19T11:52:41;98344.06;;;28.29;40.35
68948;BME280;55996;49.546;7.400;2022-08-19T11:55:08;98350.00;;;28.48;41.58
68948;BME280;55996;49.546;7.400;2022-08-19T11:57:33;98353.00;;;28.61;41.90
68948;BME280;55996;49.546;7.400;2022-08-19T11:59:59;98352.81;;;28.71;39.68
68948;BME280;55996;49.546;7.400;2022-08-19T12:02:24;98351.31;;;28.69;40.42
68948;BME280;55996;49.546;7.400;2022-08-19T12:04:50;98339.84;;;28.75;40.36
68948;BME280;55996;49.546;7.400;2022-08-19T12:07:16;98348.94;;;28.74;39.53
68948;BME280;55996;49.546;7.400;2022-08-19T12:09:41;98348.19;;;28.88;39.45
68948;BME280;55996;49.546;7.400;2022-08-19T12:12:08;98344.56;;;28.73;41.12
68948;BME280;55996;49.546;7.400;2022-08-19T12:14:34;98358.84;;;28.81;40.74
68948;BME280;55996;49.546;7.400;2022-08-19T12:17:00;98352.47;;;28.74;40.44
68948;BME280;55996;49.546;7.400;2022-08-19T12:19:27;98362.75;;;28.71;40.42
68948;BME280;55996;49.546;7.400;2022-08-19T12:21:58;98346.28;;;28.57;39.60
68948;BME280;55996;49.546;7.400;2022-08-19T12:24:25;98344.44;;;28.58;40.86
68948;BME280;55996;49.546;7.400;2022-08-19T12:26:51;98338.34;;;28.64;41.06
68948;BME280;55996;49.546;7.400;2022-08-19T12:29:17;98323.72;;;28.66;39.76
68948;BME280;55996;49.546;7.400;2022-08-19T12:31:43;98337.66;;;28.78;40.85
68948;BME280;55996;49.546;7.400;2022-08-19T12:34:08;98326.56;;;28.81;40.00
68948;BME280;55996;49.546;7.400;2022-08-19T12:36:34;98328.56;;;28.79;40.13
68948;BME280;55996;49.546;7.400;2022-08-19T12:38:59;98326.78;;;28.72;39.19
68948;BME280;55996;49.546;7.400;2022-08-19T12:41:25;98326.47;;;28.58;37.09
68948;BME280;55996;49.546;7.400;2022-08-19T12:43:51;98330.84;;;28.51;37.21
68948;BME280;55996;49.546;7.400;2022-08-19T12:46:18;98331.06;;;28.41;37.77
68948;BME280;55996;49.546;7.400;2022-08-19T12:48:44;98327.94;;;28.29;39.23
68948;BME280;55996;49.546;7.400;2022-08-19T12:51:16;98327.78;;;28.23;41.19
68948;BME280;55996;49.546;7.400;2022-08-19T12:53:42;98326.97;;;28.14;39.20
68948;BME280;55996;49.546;7.400;2022-08-19T12:56:09;98333.50;;;28.20;40.55
68948;BME280;55996;49.546;7.400;2022-08-19T12:58:35;98325.94;;;28.15;40.76
68948;BME280;55996;49.546;7.400;2022-08-19T13:01:11;98316.88;;;28.16;38.34
68948;BME280;55996;49.546;7.400;2022-08-19T13:03:38;98319.72;;;28.14;40.20
68948;BME280;55996;49.546;7.400;2022-08-19T13:06:03;98305.97;;;28.09;36.32
68948;BME280;55996;49.546;7.400;2022-08-19T13:08:29;98315.38;;;28.13;38.21
68948;BME280;55996;49.546;7.400;2022-08-19T13:10:54;98322.25;;;28.16;36.54
68948;BME280;55996;49.546;7.400;2022-08-19T13:13:20;98309.81;;;28.15;37.64
68948;BME280;55996;49.546;7.400;2022-08-19T13:15:46;98302.75;;;28.22;38.39